Time;durP1;ratioP1;P1;durP2;ratioP2;P2;SDS_P1;SDS_P2;PMS_P1;PMS_P2;Temp;Humidity;BMP_temperature;BMP_pressure;BME280_temperature;BME280_humidity;BME280_pressure;Samples;Min_cycle;Max_cycle;Signal;HPM_P1;HPM_P2
2022/11/16 00:00:15;;;;;;;5.10;4.60;;;;;;;13.27;70.21;99475.84;686228;28;1568;-75
2022/11/16 00:00:36;;;;;;;5.05;4.55;;;;;;;13.24;70.17;99464.50;682513;29;1355;-75
2022/11/16 00:01:07;;;;;;;5.55;4.63;;;;;;;13.29;70.12;99475.84;683485;28;1346;-75
2022/11/16 00:01:31;;;;;;;6.80;5.07;;;;;;;13.27;70.15;99475.00;687875;28;1767;-74
2022/11/16 00:01:51;;;;;;;7.18;5.15;;;;;;;13.27;70.13;99464.53;687777;28;1068;-74
2022/11/16 00:02:12;;;;;;;6.90;5.03;;;;;;;13.34;70.08;99476.69;689999;28;1826;-75
2022/11/16 00:02:33;;;;;;;5.80;4.85;;;;;;;13.29;70.20;99465.38;689932;28;1309;-74
2022/11/16 00:02:53;;;;;;;5.50;4.90;;;;;;;13.28;69.96;99466.25;687933;28;1298;-74
2022/11/16 00:03:14;;;;;;;5.20;4.70;;;;;;;13.27;70.18;99469.75;687891;28;1203;-74
2022/11/16 00:03:35;;;;;;;5.10;4.60;;;;;;;13.32;70.30;99475.84;686470;28;1491;-74
2022/11/16 00:03:58;;;;;;;6.28;4.88;;;;;;;13.28;70.04;99471.50;688075;28;1317;-74
2022/11/16 00:04:19;;;;;;;7.82;5.07;;;;;;;13.26;69.96;99465.38;690089;28;1276;-74
2022/11/16 00:04:39;;;;;;;7.32;5.03;;;;;;;13.22;70.10;99455.78;688728;28;800;-74
2022/11/16 00:05:00;;;;;;;6.17;4.87;;;;;;;13.26;70.00;99468.00;690481;28;1644;-74
2022/11/16 00:05:21;;;;;;;5.67;4.77;;;;;;;13.29;70.31;99468.00;688452;28;1575;-74
2022/11/16 00:05:41;;;;;;;5.88;4.97;;;;;;;13.27;70.29;99464.53;688009;28;1235;-75
2022/11/16 00:06:04;;;;;;;6.28;5.03;;;;;;;13.30;70.35;99469.72;688030;28;1812;-74
2022/11/16 00:06:26;;;;;;;5.90;5.00;;;;;;;13.33;70.13;99474.94;687126;28;1236;-74
2022/11/16 00:06:48;;;;;;;6.70;5.00;;;;;;;13.33;70.27;99469.72;688044;28;1146;-74
2022/11/16 00:07:09;;;;;;;6.10;5.00;;;;;;;13.29;70.28;99468.00;687991;28;1127;-74
2022/11/16 00:07:29;;;;;;;5.60;5.10;;;;;;;13.28;70.31;99464.50;687839;28;1713;-74
2022/11/16 00:07:50;;;;;;;5.72;5.22;;;;;;;13.29;70.15;99468.00;684718;28;1262;-74
2022/11/16 00:08:11;;;;;;;5.70;5.20;;;;;;;13.29;70.18;99462.75;685239;28;1250;-74
2022/11/16 00:08:34;;;;;;;5.83;5.20;;;;;;;13.32;70.53;99475.84;688134;28;1739;-74
2022/11/16 00:09:37;;;;;;;6.32;5.00;;;;;;;13.25;70.33;99466.25;685669;28;890;-74
2022/11/16 00:09:58;;;;;;;6.27;4.93;;;;;;;13.24;70.43;99459.28;685743;28;1093;-76
2022/11/16 00:10:19;;;;;;;8.20;5.20;;;;;;;13.23;70.61;99463.66;686202;28;1266;-75
2022/11/16 00:10:39;;;;;;;7.10;5.20;;;;;;;13.23;70.44;99460.16;685830;28;1863;-74
2022/11/16 00:11:11;;;;;;;6.75;5.13;;;;;;;13.27;70.32;99465.38;687829;28;1152;-74
2022/11/16 00:11:33;;;;;;;5.50;4.95;;;;;;;13.30;70.25;99469.72;684242;28;1945;-74
2022/11/16 00:11:56;;;;;;;6.22;5.20;;;;;;;13.28;70.42;99466.25;685276;28;1333;-75
2022/11/16 00:12:17;;;;;;;5.75;4.97;;;;;;;13.27;70.49;99464.53;690324;28;1573;-74
2022/11/16 00:12:38;;;;;;;5.70;5.10;;;;;;;13.30;70.50;99461.88;693628;28;1139;-74
2022/11/16 00:12:58;;;;;;;5.43;4.85;;;;;;;13.27;70.30;99454.03;688035;28;1273;-74
2022/11/16 00:13:19;;;;;;;5.57;4.97;;;;;;;13.27;70.48;99454.88;687404;28;1234;-74
2022/11/16 00:13:42;;;;;;;5.70;5.10;;;;;;;13.32;70.28;99459.25;685437;28;1496;-74
2022/11/16 00:14:04;;;;;;;5.90;5.35;;;;;;;13.31;70.19;99463.63;685118;28;1148;-74
2022/11/16 00:14:28;;;;;;;6.20;5.28;;;;;;;13.30;70.50;99464.50;687844;28;1889;-75
2022/11/16 00:14:49;;;;;;;7.10;5.18;;;;;;;13.29;70.36;99463.59;689127;28;1068;-75
2022/11/16 00:15:10;;;;;;;6.80;5.20;;;;;;;13.28;70.38;99461.88;687226;28;1982;-74
2022/11/16 00:15:31;;;;;;;6.70;5.20;;;;;;;13.30;70.20;99462.72;685320;28;1968;-75
2022/11/16 00:15:58;;;;;;;6.00;5.10;;;;;;;13.32;70.17;99462.72;688013;28;1147;-74
2022/11/16 00:16:18;;;;;;;5.70;5.10;;;;;;;13.25;70.21;99461.91;686406;28;1568;-74
2022/11/16 00:16:39;;;;;;;5.70;5.10;;;;;;;13.26;70.35;99457.50;687986;28;1906;-74
2022/11/16 00:17:00;;;;;;;6.30;5.47;;;;;;;13.23;70.19;99447.94;687722;28;988;-76
2022/11/16 00:17:21;;;;;;;6.90;5.60;;;;;;;13.33;70.10;99459.22;691593;28;1615;-74
2022/11/16 00:17:42;;;;;;;6.22;5.53;;;;;;;13.34;70.50;99466.19;693340;28;1931;-74
2022/11/16 00:18:02;;;;;;;6.17;5.33;;;;;;;13.25;70.33;99445.28;693157;28;1775;-74
2022/11/16 00:18:23;;;;;;;6.35;5.40;;;;;;;13.25;70.33;99451.41;689847;28;1446;-74
2022/11/16 00:18:44;;;;;;;6.95;5.60;;;;;;;13.27;70.29;99454.88;688159;28;1183;-74
2022/11/16 00:19:06;;;;;;;6.68;5.50;;;;;;;13.35;70.54;99462.75;686929;28;1350;-74
2022/11/16 00:19:27;;;;;;;6.18;5.47;;;;;;;13.31;70.10;99461.00;685021;28;1696;-74
2022/11/16 00:19:47;;;;;;;6.00;5.40;;;;;;;13.25;70.36;99450.53;682320;28;1007;-75
2022/11/16 00:20:09;;;;;;;7.72;5.57;;;;;;;13.28;70.57;99459.25;683264;28;1132;-74
2022/11/16 00:20:29;;;;;;;8.38;5.75;;;;;;;13.32;70.33;99457.50;682440;28;1910;-75
2022/11/16 00:20:50;;;;;;;8.57;5.80;;;;;;;13.32;70.38;99449.63;682699;29;1179;-74
2022/11/16 00:21:11;;;;;;;6.72;5.68;;;;;;;13.35;70.22;99446.13;682699;28;1180;-75
2022/11/16 00:21:32;;;;;;;6.25;5.65;;;;;;;13.32;70.25;99446.16;684104;28;1999;-74
2022/11/16 00:21:53;;;;;;;6.10;5.50;;;;;;;13.31;70.13;99453.13;685194;28;1089;-74
2022/11/16 00:22:13;;;;;;;6.13;5.55;;;;;;;13.27;70.22;99446.19;684976;28;1641;-75
2022/11/16 00:22:34;;;;;;;5.97;5.38;;;;;;;13.32;70.20;99452.25;684338;28;1293;-74
2022/11/16 00:22:54;;;;;;;5.93;5.30;;;;;;;13.30;70.12;99446.16;683037;28;1029;-75
2022/11/16 00:23:15;;;;;;;6.85;5.20;;;;;;;13.26;70.50;99441.78;685158;28;1179;-74
2022/11/16 00:23:37;;;;;;;7.40;5.70;;;;;;;13.25;70.36;99447.91;685172;28;1691;-74
2022/11/16 00:23:58;;;;;;;8.45;5.95;;;;;;;13.28;70.58;99450.53;684445;28;1881;-74
2022/11/16 00:24:21;;;;;;;7.35;5.88;;;;;;;13.28;70.54;99451.38;687886;28;1135;-74
2022/11/16 00:24:42;;;;;;;6.85;5.70;;;;;;;13.33;70.58;99458.38;685350;28;1212;-74
2022/11/16 00:25:02;;;;;;;6.23;5.37;;;;;;;13.22;70.67;99443.56;685340;28;1244;-74
2022/11/16 00:25:23;;;;;;;6.75;5.45;;;;;;;13.22;70.79;99446.16;685280;28;1583;-74
2022/11/16 00:25:44;;;;;;;6.30;5.15;;;;;;;13.27;70.76;99459.28;684429;28;1616;-74
2022/11/16 00:26:07;;;;;;;6.05;5.38;;;;;;;13.25;70.75;99450.53;683212;28;1293;-74
2022/11/16 00:26:27;;;;;;;6.15;5.55;;;;;;;13.23;70.43;99442.69;685705;28;1902;-74
2022/11/16 00:26:49;;;;;;;6.20;5.60;;;;;;;13.22;70.87;99450.56;685432;28;1009;-75
2022/11/16 00:27:10;;;;;;;6.97;5.78;;;;;;;13.26;70.74;99450.53;688552;28;1495;-74
2022/11/16 00:27:30;;;;;;;8.00;6.00;;;;;;;13.21;70.99;99446.19;689808;28;2181;-74
2022/11/16 00:27:51;;;;;;;7.80;5.97;;;;;;;13.21;71.15;99449.69;688078;28;1229;-75
2022/11/16 00:28:12;;;;;;;9.15;6.00;;;;;;;13.23;70.90;99449.69;692188;28;1196;-74
2022/11/16 00:28:32;;;;;;;8.45;5.93;;;;;;;13.18;70.89;99446.19;687565;28;1191;-74
2022/11/16 00:28:54;;;;;;;8.67;6.00;;;;;;;13.19;71.21;99450.56;685306;28;1056;-74
2022/11/16 00:29:17;;;;;;;6.60;5.70;;;;;;;13.20;71.13;99444.47;687833;28;1535;-74
2022/11/16 00:29:37;;;;;;;6.20;5.55;;;;;;;13.16;71.20;99438.38;685963;28;788;-74
2022/11/16 00:29:58;;;;;;;6.65;5.55;;;;;;;13.19;71.11;99443.56;685658;28;1189;-74
2022/11/16 00:30:19;;;;;;;6.80;5.90;;;;;;;13.16;71.15;99446.22;687709;28;1340;-74
2022/11/16 00:30:39;;;;;;;7.27;6.00;;;;;;;13.13;71.24;99439.25;685703;28;1535;-74
2022/11/16 00:31:03;;;;;;;7.13;5.88;;;;;;;13.16;70.77;99447.06;684824;28;1210;-74
2022/11/16 00:31:24;;;;;;;7.10;5.70;;;;;;;13.19;71.28;99445.31;684304;28;1915;-74
2022/11/16 00:31:45;;;;;;;7.22;5.80;;;;;;;13.21;71.22;99452.28;685623;28;740;-74
2022/11/16 00:32:05;;;;;;;6.70;5.80;;;;;;;13.16;71.15;99441.84;685116;28;1218;-74
2022/11/16 00:32:26;;;;;;;7.40;5.90;;;;;;;13.22;70.98;99446.16;684040;28;1798;-74
2022/11/16 00:32:47;;;;;;;7.50;6.10;;;;;;;13.21;70.99;99443.59;682821;28;1199;-74
2022/11/16 00:33:13;;;;;;;7.40;6.00;;;;;;;13.32;70.70;99454.00;687252;28;1920;-74
2022/11/16 00:33:33;;;;;;;6.55;5.65;;;;;;;13.32;70.89;99454.88;686197;28;1982;-74
2022/11/16 00:33:54;;;;;;;6.60;5.90;;;;;;;13.24;70.84;99440.94;686789;28;1587;-74
2022/11/16 00:34:16;;;;;;;7.00;5.82;;;;;;;13.35;70.93;99456.59;686293;28;1194;-74
2022/11/16 00:34:38;;;;;;;6.53;5.82;;;;;;;13.28;70.77;99440.06;685260;28;1273;-75
2022/11/16 00:34:59;;;;;;;6.40;5.53;;;;;;;13.26;70.91;99441.78;683928;28;1054;-74
2022/11/16 00:35:20;;;;;;;6.20;5.60;;;;;;;13.24;70.97;99440.94;684717;28;1658;-75
2022/11/16 00:35:40;;;;;;;6.70;5.60;;;;;;;13.26;70.86;99442.69;685414;28;1840;-74
2022/11/16 00:36:06;;;;;;;7.05;5.70;;;;;;;13.28;70.63;99442.69;684536;28;1539;-75
2022/11/16 00:36:27;;;;;;;7.22;5.93;;;;;;;13.25;70.97;99445.28;686490;28;1919;-74
2022/11/16 00:36:48;;;;;;;6.70;6.00;;;;;;;13.26;70.98;99441.78;688305;28;1094;-75
2022/11/16 00:37:09;;;;;;;6.80;6.10;;;;;;;13.22;70.89;99430.47;688599;28;1226;-75
2022/11/16 00:37:29;;;;;;;6.60;5.90;;;;;;;13.25;71.14;99445.28;687723;28;1901;-74
2022/11/16 00:37:50;;;;;;;6.07;5.47;;;;;;;13.14;70.84;99433.13;685279;28;1482;-75
2022/11/16 00:38:11;;;;;;;6.10;5.40;;;;;;;13.26;71.13;99439.16;687724;28;1408;-74
2022/11/16 00:38:32;;;;;;;6.03;5.43;;;;;;;13.28;70.89;99446.16;688398;28;1978;-74
2022/11/16 00:38:52;;;;;;;6.80;5.80;;;;;;;13.20;70.82;99439.22;686473;28;1823;-75
2022/11/16 00:39:15;;;;;;;6.68;5.97;;;;;;;13.22;71.08;99437.47;687354;28;1675;-74
2022/11/16 00:39:35;;;;;;;6.72;6.03;;;;;;;13.14;70.89;99435.75;684845;28;1857;-74
2022/11/16 00:39:56;;;;;;;6.57;5.97;;;;;;;13.15;70.95;99434.00;682313;28;1079;-74
2022/11/16 00:40:16;;;;;;;6.50;5.88;;;;;;;13.18;71.25;99435.72;682278;28;1754;-74
2022/11/16 00:40:37;;;;;;;6.60;5.93;;;;;;;13.19;70.98;99438.34;683910;28;1327;-75
2022/11/16 00:40:58;;;;;;;6.70;5.90;;;;;;;13.20;71.25;99439.22;687806;28;1367;-74
2022/11/16 00:41:18;;;;;;;7.03;6.30;;;;;;;13.21;71.48;99438.34;688359;28;1720;-73
2022/11/16 00:41:40;;;;;;;6.72;5.90;;;;;;;13.16;71.14;99435.75;687951;28;1480;-74
2022/11/16 00:42:01;;;;;;;6.43;5.80;;;;;;;13.15;71.38;99434.84;686366;28;1794;-74
2022/11/16 00:42:21;;;;;;;7.25;5.55;;;;;;;13.18;70.98;99433.09;690610;28;1667;-74
2022/11/16 00:42:44;;;;;;;8.02;5.85;;;;;;;13.19;71.31;99434.84;688027;28;807;-74
2022/11/16 00:43:04;;;;;;;7.68;5.90;;;;;;;13.21;71.09;99433.09;685002;28;1538;-74
2022/11/16 00:43:25;;;;;;;7.70;5.90;;;;;;;13.20;71.16;99431.38;688722;28;1378;-75
2022/11/16 00:43:46;;;;;;;6.57;5.60;;;;;;;13.19;71.07;99429.59;687592;28;930;-75
2022/11/16 00:44:08;;;;;;;6.77;5.87;;;;;;;13.27;71.39;99441.78;686666;28;1256;-75
2022/11/16 00:44:28;;;;;;;7.03;6.10;;;;;;;13.23;71.09;99436.59;687771;28;1596;-74
2022/11/16 00:44:49;;;;;;;7.15;6.18;;;;;;;13.23;71.15;99426.09;688010;28;1195;-74
2022/11/16 00:45:11;;;;;;;6.95;5.97;;;;;;;13.29;71.07;99441.78;685608;28;1243;-74
2022/11/16 00:45:31;;;;;;;6.45;5.60;;;;;;;13.29;71.21;99437.41;688748;28;807;-74
2022/11/16 00:45:52;;;;;;;6.82;5.80;;;;;;;13.25;71.14;99438.31;683844;28;1702;-76
2022/11/16 00:46:13;;;;;;;6.65;5.95;;;;;;;13.32;71.14;99444.38;684502;28;1542;-74
2022/11/16 00:46:34;;;;;;;6.45;5.85;;;;;;;13.30;70.91;99433.06;686981;28;1562;-74
2022/11/16 00:46:55;;;;;;;6.07;5.47;;;;;;;13.26;70.87;99423.44;682667;29;1082;-75
2022/11/16 00:47:16;;;;;;;6.18;5.28;;;;;;;13.28;70.73;99429.59;686264;28;1423;-74
2022/11/16 00:47:36;;;;;;;6.60;5.50;;;;;;;13.25;70.92;99427.84;684965;28;2028;-74
2022/11/16 00:47:57;;;;;;;7.90;5.50;;;;;;;13.24;70.86;99431.34;682996;28;1992;-75
2022/11/16 00:48:18;;;;;;;7.93;5.57;;;;;;;13.28;70.53;99424.34;683047;28;1277;-74
2022/11/16 00:48:39;;;;;;;8.50;5.70;;;;;;;13.28;70.82;99429.59;687858;28;1244;-75
2022/11/16 00:49:00;;;;;;;7.55;5.80;;;;;;;13.25;70.74;99424.34;685290;28;1156;-74
2022/11/16 00:49:20;;;;;;;7.30;5.60;;;;;;;13.29;70.94;99426.06;687940;28;1267;-74
2022/11/16 00:49:41;;;;;;;6.80;5.57;;;;;;;13.27;70.74;99425.22;685029;28;1450;-74
2022/11/16 00:50:02;;;;;;;6.60;5.70;;;;;;;13.28;70.91;99432.19;687543;28;1199;-74
2022/11/16 00:50:23;;;;;;;7.50;6.00;;;;;;;13.28;71.13;99426.97;688944;28;1431;-74
2022/11/16 00:50:45;;;;;;;7.93;6.20;;;;;;;13.29;70.93;99433.94;685415;28;1249;-74
2022/11/16 00:51:06;;;;;;;7.32;6.00;;;;;;;13.31;70.98;99434.78;686225;28;1830;-74
2022/11/16 00:51:26;;;;;;;7.20;5.80;;;;;;;13.33;71.04;99438.28;686451;28;1826;-74
2022/11/16 00:51:47;;;;;;;7.00;5.65;;;;;;;13.26;71.11;99426.97;690644;28;1126;-74
2022/11/16 00:52:08;;;;;;;7.80;5.90;;;;;;;13.18;70.91;99428.75;687994;28;1131;-74
2022/11/16 00:52:29;;;;;;;7.80;6.00;;;;;;;13.18;71.18;99427.84;690721;28;1783;-74
2022/11/16 00:52:49;;;;;;;7.30;5.90;;;;;;;13.23;71.31;99426.09;687495;28;1897;-74
2022/11/16 00:53:16;;;;;;;6.68;5.97;;;;;;;13.23;71.23;99426.09;684118;28;1150;-74
2022/11/16 00:53:52;;;;;;;8.05;6.20;;;;;;;13.23;71.09;99439.19;685124;28;1808;-74
2022/11/16 00:54:13;;;;;;;8.60;6.25;;;;;;;13.19;71.45;99429.59;684545;28;1485;-74
2022/11/16 00:54:35;;;;;;;7.80;6.35;;;;;;;13.20;71.29;99431.38;683247;28;784;-74
2022/11/16 00:54:55;;;;;;;8.00;6.50;;;;;;;13.12;71.12;99424.41;685308;28;1141;-74
2022/11/16 00:55:16;;;;;;;8.93;6.60;;;;;;;13.13;71.44;99413.06;684370;28;1170;-74
2022/11/16 00:55:37;;;;;;;7.50;6.20;;;;;;;13.13;71.40;99420.91;682664;28;1337;-75
2022/11/16 00:55:58;;;;;;;7.63;6.10;;;;;;;13.15;71.38;99428.78;685094;28;1251;-74
2022/11/16 00:56:18;;;;;;;7.80;5.82;;;;;;;13.14;71.56;99425.25;685076;28;1514;-74
2022/11/16 00:56:39;;;;;;;8.90;5.95;;;;;;;13.14;71.45;99421.75;682442;28;1971;-74
2022/11/16 00:57:00;;;;;;;9.02;6.35;;;;;;;13.16;71.57;99420.88;683514;28;1314;-74
2022/11/16 00:57:21;;;;;;;7.55;6.30;;;;;;;13.14;71.46;99422.66;684956;28;1604;-74
2022/11/16 00:57:42;;;;;;;7.95;6.53;;;;;;;13.13;71.48;99420.91;685312;28;1658;-74
2022/11/16 00:58:03;;;;;;;6.88;6.15;;;;;;;13.08;71.40;99414.81;682312;28;1358;-74
2022/11/16 00:58:24;;;;;;;6.80;6.10;;;;;;;13.10;71.48;99420.91;686379;28;2091;-74
2022/11/16 00:58:51;;;;;;;6.55;5.95;;;;;;;13.11;71.37;99417.44;683225;28;1653;-74
2022/11/16 00:59:12;;;;;;;7.53;5.95;;;;;;;13.11;71.52;99425.28;687882;28;1166;-74
2022/11/16 00:59:34;;;;;;;9.02;6.53;;;;;;;13.05;71.60;99417.44;688219;28;1387;-74
2022/11/16 00:59:54;;;;;;;9.37;6.40;;;;;;;13.06;71.66;99418.31;682469;28;1552;-74
2022/11/16 01:00:16;;;;;;;7.40;6.18;;;;;;;13.05;71.66;99417.44;682305;29;1312;-75
2022/11/16 01:00:39;;;;;;;6.60;5.90;;;;;;;13.09;71.74;99423.56;682479;28;1118;-74
2022/11/16 01:01:06;;;;;;;6.78;6.07;;;;;;;13.10;71.73;99425.28;682589;29;1143;-74
2022/11/16 01:01:26;;;;;;;7.30;6.40;;;;;;;13.09;71.63;99424.41;682492;29;1406;-74
2022/11/16 01:01:47;;;;;;;7.07;6.30;;;;;;;13.08;71.59;99416.56;680048;29;1072;-74
2022/11/16 01:02:08;;;;;;;7.43;6.10;;;;;;;13.09;71.68;99424.41;684742;28;1592;-74
2022/11/16 01:02:28;;;;;;;7.57;5.97;;;;;;;13.04;71.50;99418.34;685238;28;1859;-74
2022/11/16 01:02:51;;;;;;;8.10;5.95;;;;;;;13.05;72.17;99420.06;685152;28;1076;-74
2022/11/16 01:03:12;;;;;;;7.85;6.00;;;;;;;13.03;71.90;99419.19;686666;28;1285;-75
2022/11/16 01:03:34;;;;;;;6.65;5.80;;;;;;;13.03;71.96;99411.31;687992;28;1200;-74
2022/11/16 01:03:55;;;;;;;6.50;5.80;;;;;;;13.04;71.96;99410.47;689609;28;1682;-74
2022/11/16 01:04:16;;;;;;;6.57;5.97;;;;;;;13.06;72.01;99419.19;687555;28;1674;-74
2022/11/16 01:04:36;;;;;;;7.40;6.20;;;;;;;13.03;71.79;99408.72;682772;29;835;-74
2022/11/16 01:04:57;;;;;;;7.57;6.22;;;;;;;13.03;71.92;99408.72;685091;28;1069;-74
2022/11/16 01:05:18;;;;;;;7.73;6.20;;;;;;;13.04;71.52;99410.47;685135;28;1226;-74
2022/11/16 01:05:39;;;;;;;7.50;5.90;;;;;;;13.01;71.69;99410.47;684948;28;1432;-74
2022/11/16 01:06:03;;;;;;;7.65;6.30;;;;;;;13.05;71.86;99409.59;686624;28;1444;-74
2022/11/16 01:06:24;;;;;;;7.25;6.40;;;;;;;13.07;71.73;99415.69;681651;29;1442;-74
2022/11/16 01:06:45;;;;;;;7.10;6.40;;;;;;;13.04;71.53;99415.72;682681;28;1112;-74
2022/11/16 01:07:05;;;;;;;6.80;6.10;;;;;;;13.05;71.78;99412.22;682189;29;2149;-74
2022/11/16 01:07:26;;;;;;;7.10;5.90;;;;;;;13.06;71.82;99408.72;682548;28;1579;-74
2022/11/16 01:07:47;;;;;;;7.83;6.30;;;;;;;13.07;71.74;99413.06;682717;28;1148;-74
2022/11/16 01:08:08;;;;;;;9.43;6.30;;;;;;;13.13;71.66;99418.28;682596;28;1253;-74
2022/11/16 01:08:31;;;;;;;9.48;6.43;;;;;;;13.07;71.95;99415.69;685151;28;1901;-73
2022/11/16 01:08:53;;;;;;;8.05;6.13;;;;;;;13.09;71.63;99413.06;685180;28;1380;-74
2022/11/16 01:09:17;;;;;;;6.95;6.00;;;;;;;13.04;71.81;99400.00;685299;28;1561;-74
2022/11/16 01:09:40;;;;;;;6.80;5.90;;;;;;;13.12;71.79;99419.16;683068;28;1651;-74
2022/11/16 01:10:04;;;;;;;6.70;6.00;;;;;;;13.10;71.72;99410.44;682160;29;1093;-75
2022/11/16 01:10:26;;;;;;;6.97;6.28;;;;;;;13.07;71.71;99399.97;684273;28;1408;-73
2022/11/16 01:10:47;;;;;;;7.30;6.50;;;;;;;13.12;71.89;99413.94;686701;28;1750;-74
2022/11/16 01:12:26;;;;;;;8.15;6.30;;;;;;;13.12;71.60;99408.69;685186;28;1625;-74
2022/11/16 01:12:49;;;;;;;7.20;6.10;;;;;;;13.09;71.43;99407.84;687766;28;1590;-74
2022/11/16 01:13:10;;;;;;;7.40;6.30;;;;;;;13.10;71.65;99410.44;687729;28;1197;-74
2022/11/16 01:13:30;;;;;;;7.82;6.13;;;;;;;13.09;71.88;99402.59;682453;28;956;-74
2022/11/16 01:13:52;;;;;;;7.40;6.20;;;;;;;13.11;71.76;99411.31;682635;29;999;-74
2022/11/16 01:14:13;;;;;;;7.10;6.03;;;;;;;13.12;71.60;99413.94;687630;28;1596;-74
2022/11/16 01:14:37;;;;;;;7.38;6.47;;;;;;;13.13;71.81;99410.44;686172;28;1515;-73
2022/11/16 01:14:59;;;;;;;8.85;6.65;;;;;;;13.14;71.53;99411.28;685635;28;1567;-74
2022/11/16 01:15:22;;;;;;;8.18;6.50;;;;;;;13.12;71.59;99413.06;684504;28;1506;-73
2022/11/16 01:15:47;;;;;;;7.93;6.25;;;;;;;13.10;71.78;99409.56;687999;28;823;-74
2022/11/16 01:16:08;;;;;;;7.78;6.38;;;;;;;13.12;71.71;99408.69;684985;28;1309;-74
2022/11/16 01:16:29;;;;;;;8.27;6.20;;;;;;;13.13;71.73;99405.19;682988;28;1373;-74
2022/11/16 01:16:50;;;;;;;8.10;6.20;;;;;;;13.23;71.59;99423.47;682490;29;1439;-74
2022/11/16 01:17:12;;;;;;;7.40;6.38;;;;;;;13.20;71.59;99423.50;687207;28;1028;-74
2022/11/16 01:17:34;;;;;;;8.32;6.60;;;;;;;13.14;71.51;99412.16;690659;28;801;-74
2022/11/16 01:17:55;;;;;;;9.65;6.68;;;;;;;13.18;71.33;99412.13;688000;28;1032;-74
2022/11/16 01:18:16;;;;;;;10.05;6.70;;;;;;;13.13;71.59;99404.31;687393;28;1379;-74
2022/11/16 01:18:37;;;;;;;8.18;6.55;;;;;;;13.13;71.38;99405.19;687562;28;1894;-74
2022/11/16 01:18:58;;;;;;;7.55;6.53;;;;;;;13.20;71.69;99419.13;686837;28;1023;-74
2022/11/16 01:19:19;;;;;;;7.90;6.70;;;;;;;13.14;71.64;99409.56;682166;29;1648;-74
2022/11/16 01:19:40;;;;;;;7.97;6.95;;;;;;;13.14;71.42;99409.56;682227;29;804;-74
2022/11/16 01:20:01;;;;;;;7.82;6.88;;;;;;;13.13;71.40;99409.56;682158;29;1016;-74
2022/11/16 01:20:25;;;;;;;8.40;6.88;;;;;;;13.16;71.32;99415.66;684805;28;1557;-73
2022/11/16 01:20:45;;;;;;;8.60;6.90;;;;;;;13.15;71.74;99421.75;685055;28;1908;-73
2022/11/16 01:21:06;;;;;;;8.63;7.10;;;;;;;13.16;71.61;99404.31;684876;28;1278;-74
2022/11/16 01:21:27;;;;;;;8.30;7.10;;;;;;;13.13;71.36;99405.19;684257;28;1492;-74
2022/11/16 01:21:48;;;;;;;7.88;7.00;;;;;;;13.12;71.54;99408.69;687875;28;1280;-74
2022/11/16 01:22:09;;;;;;;7.97;6.95;;;;;;;13.16;71.63;99405.16;690008;28;1403;-74
2022/11/16 01:22:29;;;;;;;8.00;7.20;;;;;;;13.14;71.41;99401.69;687643;28;1866;-74
2022/11/16 01:22:50;;;;;;;7.65;6.85;;;;;;;13.13;71.50;99399.97;687879;28;1293;-74
2022/11/16 01:23:11;;;;;;;7.70;6.60;;;;;;;13.16;71.42;99410.41;687861;28;1179;-74
2022/11/16 01:23:32;;;;;;;7.55;6.38;;;;;;;13.13;71.50;99405.19;684715;28;1972;-73
2022/11/16 01:23:53;;;;;;;8.53;7.00;;;;;;;13.20;71.13;99413.03;683765;28;1353;-74
2022/11/16 01:24:13;;;;;;;8.13;7.20;;;;;;;13.14;71.32;99409.56;683471;28;1545;-74
2022/11/16 01:24:34;;;;;;;8.53;7.13;;;;;;;13.15;71.49;99410.44;685010;28;1325;-74
2022/11/16 01:24:55;;;;;;;7.97;6.93;;;;;;;13.06;71.47;99413.94;685109;28;1141;-74
2022/11/16 01:25:16;;;;;;;8.25;7.05;;;;;;;12.94;71.71;99404.41;682420;29;1496;-74
2022/11/16 01:25:38;;;;;;;8.10;7.00;;;;;;;13.10;71.79;99415.66;684042;28;1925;-74
2022/11/16 01:26:02;;;;;;;8.00;7.10;;;;;;;13.16;71.62;99418.25;685064;28;1042;-74
2022/11/16 01:26:24;;;;;;;8.65;7.20;;;;;;;13.01;71.87;99397.38;684915;28;1457;-74
2022/11/16 01:26:45;;;;;;;9.10;7.00;;;;;;;13.06;71.79;99395.63;685349;28;866;-74
2022/11/16 01:27:06;;;;;;;9.17;6.90;;;;;;;13.11;71.44;99406.97;684762;28;1524;-74
2022/11/16 01:27:29;;;;;;;9.52;7.10;;;;;;;13.15;71.45;99410.44;682322;29;1520;-74
2022/11/16 01:27:52;;;;;;;10.05;7.00;;;;;;;13.07;71.31;99399.97;682160;28;1433;-73
2022/11/16 01:28:19;;;;;;;9.98;7.00;;;;;;;13.12;71.69;99407.81;683760;28;1981;-73
2022/11/16 01:28:43;;;;;;;8.80;6.80;;;;;;;13.09;71.41;99403.44;685177;28;1080;-75
2022/11/16 01:29:05;;;;;;;8.55;7.07;;;;;;;13.14;71.51;99404.31;685880;28;1500;-74
2022/11/16 01:29:31;;;;;;;8.13;6.90;;;;;;;13.10;71.56;99399.94;684845;28;850;-74
2022/11/16 01:29:55;;;;;;;8.40;7.03;;;;;;;13.02;71.39;99402.63;682571;28;1504;-74
2022/11/16 01:30:16;;;;;;;8.52;7.00;;;;;;;12.92;71.74;99400.88;682900;28;1354;-74
2022/11/16 01:30:47;;;;;;;7.95;6.60;;;;;;;12.89;72.03;99404.38;687600;28;1701;-74
2022/11/16 01:31:09;;;;;;;8.15;6.70;;;;;;;12.92;72.05;99411.38;684554;28;1953;-74
2022/11/16 01:31:31;;;;;;;8.18;6.95;;;;;;;12.84;72.43;99408.75;683673;28;1608;-74
2022/11/16 01:31:52;;;;;;;8.13;7.10;;;;;;;12.81;72.28;99400.91;681313;29;1958;-73
2022/11/16 01:32:13;;;;;;;8.07;7.28;;;;;;;12.78;72.43;99393.06;683891;28;1964;-74
2022/11/16 01:32:35;;;;;;;8.48;7.45;;;;;;;12.80;72.25;99391.34;683272;28;1755;-74
2022/11/16 01:32:56;;;;;;;9.02;7.40;;;;;;;12.79;72.53;99401.78;681765;28;2131;-74
2022/11/16 01:33:17;;;;;;;9.15;7.30;;;;;;;12.78;72.63;99398.28;688845;28;1183;-74
2022/11/16 01:33:38;;;;;;;9.20;7.40;;;;;;;12.78;72.60;99403.53;687186;28;1832;-74
2022/11/16 01:34:00;;;;;;;8.63;7.68;;;;;;;12.79;72.61;99404.41;687375;28;2006;-73
2022/11/16 01:34:22;;;;;;;9.10;7.57;;;;;;;12.72;72.92;99388.72;682529;28;1862;-73
2022/11/16 01:34:44;;;;;;;8.85;7.13;;;;;;;12.76;72.90;99400.06;685138;28;855;-73
2022/11/16 01:35:19;;;;;;;9.25;7.30;;;;;;;12.72;72.67;99393.97;685881;28;1745;-74
2022/11/16 01:35:43;;;;;;;9.48;7.28;;;;;;;12.77;72.87;99396.56;688066;28;839;-74
2022/11/16 01:36:13;;;;;;;9.13;7.20;;;;;;;12.78;72.81;99406.16;690344;28;1257;-74
2022/11/16 01:36:35;;;;;;;9.35;7.50;;;;;;;12.72;73.00;99390.50;685586;28;1887;-74
2022/11/16 01:36:56;;;;;;;9.52;7.40;;;;;;;12.75;72.76;99393.09;683282;28;1381;-74
2022/11/16 01:37:19;;;;;;;10.70;7.40;;;;;;;12.74;73.16;99397.44;684363;28;1705;-73
2022/11/16 01:37:39;;;;;;;11.33;7.43;;;;;;;12.75;73.21;99387.84;685016;28;1440;-73
2022/11/16 01:38:00;;;;;;;10.95;7.55;;;;;;;12.83;72.91;99390.44;685991;28;1098;-74
2022/11/16 01:38:21;;;;;;;10.45;7.80;;;;;;;12.75;73.03;99390.47;687812;28;1290;-74
2022/11/16 01:38:44;;;;;;;10.55;7.63;;;;;;;12.71;72.98;99391.34;687759;28;1435;-74
2022/11/16 01:39:05;;;;;;;10.73;7.80;;;;;;;12.67;73.17;99387.84;682264;28;1290;-74
2022/11/16 01:39:35;;;;;;;9.27;7.85;;;;;;;12.67;73.09;99387.84;685217;28;1464;-74
2022/11/16 01:39:57;;;;;;;10.40;8.20;;;;;;;12.67;73.54;99390.47;684598;28;1356;-74
2022/11/16 01:40:18;;;;;;;9.82;8.20;;;;;;;12.67;73.22;99389.63;682334;28;1638;-74
2022/11/16 01:40:39;;;;;;;11.10;7.88;;;;;;;12.69;73.09;99393.09;682448;29;1371;-74
2022/11/16 01:41:00;;;;;;;10.30;7.85;;;;;;;12.63;72.99;99387.88;683406;28;1453;-74
2022/11/16 01:41:25;;;;;;;10.20;7.72;;;;;;;12.67;73.18;99394.84;687613;28;1642;-73
2022/11/16 01:41:50;;;;;;;10.95;7.90;;;;;;;12.63;73.34;99387.88;687770;28;1018;-74
2022/11/16 01:42:20;;;;;;;9.50;7.82;;;;;;;12.66;73.23;99385.25;684919;28;1190;-73
2022/11/16 01:42:44;;;;;;;8.40;7.50;;;;;;;12.68;72.94;99391.34;685161;28;2038;-73
2022/11/16 01:43:18;;;;;;;8.13;7.33;;;;;;;12.69;73.22;99387.84;684387;28;1203;-73
2022/11/16 01:44:01;;;;;;;8.43;7.40;;;;;;;12.71;72.99;99397.47;685271;28;912;-74
2022/11/16 01:44:32;;;;;;;9.00;7.97;;;;;;;12.75;73.11;99399.19;685199;28;895;-73
2022/11/16 01:45:42;;;;;;;11.25;8.30;;;;;;;12.69;73.14;99383.50;683064;28;1253;-74
2022/11/16 01:46:05;;;;;;;9.50;8.50;;;;;;;12.66;73.09;99391.34;683800;28;2168;-75
2022/11/16 01:46:27;;;;;;;8.80;7.90;;;;;;;12.65;72.85;99386.16;686582;28;1515;-73
2022/11/16 01:46:48;;;;;;;8.60;7.70;;;;;;;12.61;73.27;99388.75;684546;28;1052;-75
2022/11/16 01:47:13;;;;;;;8.30;7.50;;;;;;;12.66;72.90;99395.72;682165;29;1252;-74
2022/11/16 01:47:34;;;;;;;8.27;7.38;;;;;;;12.56;73.32;99377.44;685017;28;1944;-74
2022/11/16 01:47:55;;;;;;;9.13;7.80;;;;;;;12.64;72.89;99389.63;684539;28;1747;-74
2022/11/16 01:48:24;;;;;;;10.68;8.07;;;;;;;12.63;73.23;99383.53;687045;28;1530;-74
2022/11/16 01:48:47;;;;;;;9.20;7.80;;;;;;;12.65;72.98;99383.53;687921;28;920;-73